Time;durP1;ratioP1;P1;durP2;ratioP2;P2;SDS_P1;SDS_P2;PMS_P1;PMS_P2;Temp;Humidity;BMP_temperature;BMP_pressure;BME280_temperature;BME280_humidity;BME280_pressure;Samples;Min_cycle;Max_cycle;Signal;HPM_P1;HPM_P2
2022/09/22 00:01:17;;;;;;;2.92;2.72;;;;;;;11.81;100.00;99432.44;1676360;83;21510;-60
2022/09/22 00:03:47;;;;;;;3.25;3.00;;;;;;;11.80;100.00;99436.46;1682183;83;21440;-60
2022/09/22 00:06:30;;;;;;;3.37;3.02;;;;;;;11.76;100.00;99439.71;1675334;83;21031;-62
2022/09/22 00:09:02;;;;;;;3.45;2.95;;;;;;;11.71;100.00;99431.19;1687023;83;21559;-60
2022/09/22 00:11:35;;;;;;;3.17;2.95;;;;;;;11.65;100.00;99436.30;1676354;83;21160;-61
2022/09/22 00:14:16;;;;;;;3.50;3.10;;;;;;;11.62;100.00;99435.16;1683667;83;21554;-60
2022/09/22 00:16:51;;;;;;;4.80;3.15;;;;;;;11.60;100.00;99441.41;1682166;83;21480;-60
2022/09/22 00:19:30;;;;;;;4.42;3.30;;;;;;;11.55;100.00;99440.34;1687106;83;21567;-60
2022/09/22 00:21:57;;;;;;;3.77;3.30;;;;;;;11.52;100.00;99439.16;1682717;83;21840;-61
2022/09/22 00:24:24;;;;;;;3.40;3.10;;;;;;;11.52;100.00;99447.06;1671716;83;22743;-60
2022/09/22 00:26:55;;;;;;;4.03;3.02;;;;;;;11.48;100.00;99434.98;1683149;83;25554;-60
2022/09/22 00:29:22;;;;;;;3.90;3.60;;;;;;;11.38;100.00;99435.91;1689607;83;21012;-61
2022/09/22 00:31:49;;;;;;;3.02;2.80;;;;;;;11.35;100.00;99437.84;1638834;85;21627;-60
2022/09/22 00:34:19;;;;;;;3.50;3.17;;;;;;;11.33;100.00;99434.43;1677203;83;21753;-60
2022/09/22 00:36:45;;;;;;;4.53;3.27;;;;;;;11.37;100.00;99439.92;1678308;83;21655;-60
2022/09/22 00:39:12;;;;;;;3.75;3.45;;;;;;;11.43;100.00;99444.44;1675794;84;21510;-60
2022/09/22 00:41:44;;;;;;;4.17;2.58;;;;;;;11.49;100.00;99438.86;1684530;83;21481;-60
2022/09/22 00:44:27;;;;;;;4.60;2.83;;;;;;;11.50;100.00;99433.12;1686454;83;21476;-60
2022/09/22 00:47:08;;;;;;;3.20;2.85;;;;;;;11.52;100.00;99436.53;1674330;83;21432;-62
2022/09/22 00:49:49;;;;;;;2.90;2.70;;;;;;;11.52;100.00;99440.48;1661034;84;21011;-62
2022/09/22 00:52:27;;;;;;;4.67;2.92;;;;;;;11.49;100.00;99432.75;1648659;84;21543;-62
2022/09/22 00:54:56;;;;;;;4.05;3.00;;;;;;;11.43;100.00;99441.81;1670154;83;21184;-61
2022/09/22 00:57:26;;;;;;;3.20;3.00;;;;;;;11.42;100.00;99437.45;1676636;83;21506;-61
2022/09/22 00:59:53;;;;;;;2.77;2.58;;;;;;;11.47;100.00;99435.90;1686468;83;21857;-61
2022/09/22 01:02:19;;;;;;;2.92;2.72;;;;;;;11.46;100.00;99439.00;1668909;83;21012;-61
2022/09/22 01:04:48;;;;;;;2.58;2.42;;;;;;;11.49;100.00;99442.81;1680976;84;21558;-61
2022/09/22 01:07:15;;;;;;;3.50;3.20;;;;;;;11.50;100.00;99433.97;1683119;83;21496;-61
2022/09/22 01:09:42;;;;;;;3.22;2.90;;;;;;;11.49;100.00;99435.39;1693185;83;21483;-60
2022/09/22 01:12:08;;;;;;;7.72;3.35;;;;;;;11.52;100.00;99437.00;1675790;83;21897;-60
2022/09/22 01:14:45;;;;;;;4.03;3.40;;;;;;;11.54;100.00;99443.04;1679477;83;20951;-60
2022/09/22 01:17:20;;;;;;;2.83;2.62;;;;;;;11.51;100.00;99444.06;1677162;83;21428;-60
2022/09/22 01:20:16;;;;;;;4.20;2.95;;;;;;;11.54;100.00;99441.25;1672819;83;21613;-60
2022/09/22 01:23:23;;;;;;;3.20;2.95;;;;;;;11.56;100.00;99440.70;1678216;83;21491;-60
2022/09/22 01:26:15;;;;;;;;;;;;;;;11.53;100.00;99445.27;1684269;83;21772;-60
2022/09/22 01:29:12;;;;;;;3.12;2.92;;;;;;;11.40;100.00;99439.79;1680062;83;20180;-61
2022/09/22 01:31:54;;;;;;;4.30;3.17;;;;;;;11.28;100.00;99442.53;1584989;88;21494;-61
2022/09/22 01:34:40;;;;;;;4.70;3.20;;;;;;;11.30;100.00;99440.68;1661013;83;21503;-61
2022/09/22 01:37:20;;;;;;;6.03;3.33;;;;;;;11.36;100.00;99444.34;1676046;83;21414;-61
2022/09/22 01:40:10;;;;;;;2.98;2.77;;;;;;;11.41;100.00;99447.58;1686392;83;21877;-61
2022/09/22 01:42:43;;;;;;;7.53;3.10;;;;;;;11.41;100.00;99450.69;1682684;82;21555;-61
2022/09/22 01:45:14;;;;;;;3.35;3.10;;;;;;;11.39;100.00;99440.70;1671889;83;21445;-61
2022/09/22 01:47:46;;;;;;;3.10;2.87;;;;;;;11.37;100.00;99440.77;1667527;83;21455;-61
2022/09/22 01:50:21;;;;;;;3.52;3.22;;;;;;;11.36;100.00;99438.21;1672764;84;21420;-62
2022/09/22 01:52:48;;;;;;;3.45;3.00;;;;;;;11.36;100.00;99444.34;1693437;83;21814;-61
2022/09/22 01:55:25;;;;;;;5.95;3.20;;;;;;;11.45;100.00;99440.39;1665793;83;21484;-61
2022/09/22 01:57:57;;;;;;;3.30;3.00;;;;;;;11.49;100.00;99437.55;1675585;83;21637;-61
2022/09/22 02:00:25;;;;;;;3.25;3.02;;;;;;;11.57;100.00;99439.80;1683962;83;21507;-62
2022/09/22 02:03:15;;;;;;;4.00;3.20;;;;;;;11.61;100.00;99441.34;1678430;83;21498;-61
2022/09/22 02:05:48;;;;;;;3.45;3.15;;;;;;;11.60;100.00;99437.46;1669317;83;21809;-61
2022/09/22 02:08:36;;;;;;;3.35;3.05;;;;;;;11.58;100.00;99438.84;1685410;83;21616;-62
2022/09/22 02:11:10;;;;;;;3.27;2.90;;;;;;;11.57;100.00;99434.53;1685411;83;21050;-61
2022/09/22 02:13:37;;;;;;;3.35;3.10;;;;;;;11.60;100.00;99428.24;1675384;84;21054;-61
2022/09/22 02:16:06;;;;;;;3.45;2.92;;;;;;;11.67;100.00;99434.44;1683044;83;21606;-62
2022/09/22 02:19:01;;;;;;;2.33;2.22;;;;;;;11.67;100.00;99429.17;1679331;83;21587;-61
2022/09/22 02:21:28;;;;;;;2.98;2.77;;;;;;;11.74;100.00;99423.14;1676562;83;21101;-61
2022/09/22 02:23:55;;;;;;;3.12;2.62;;;;;;;11.77;100.00;99430.89;1675108;83;21638;-61
2022/09/22 02:26:25;;;;;;;3.30;3.00;;;;;;;11.75;100.00;99422.19;1677566;82;21568;-61
2022/09/22 02:28:55;;;;;;;5.17;2.77;;;;;;;11.76;100.00;99425.70;1689659;83;21511;-61
2022/09/22 02:31:22;;;;;;;2.72;2.52;;;;;;;11.75;100.00;99418.24;1676889;83;21959;-61
2022/09/22 02:33:50;;;;;;;2.67;2.47;;;;;;;11.72;100.00;99414.94;1685738;83;21432;-61
2022/09/22 02:36:45;;;;;;;2.80;2.60;;;;;;;11.77;100.00;99415.09;1669012;83;21599;-61
2022/09/22 02:39:43;;;;;;;3.85;2.60;;;;;;;11.33;100.00;99335.73;1691544;83;21452;-61
2022/09/22 02:42:50;;;;;;;3.77;2.52;;;;;;;11.86;100.00;99411.11;1675750;83;21559;-61
2022/09/22 02:45:20;;;;;;;;;;;;;;;11.89;100.00;99416.23;1673181;83;22180;-61
2022/09/22 02:47:56;;;;;;;2.77;2.22;;;;;;;11.76;100.00;99416.48;1680585;84;20447;-61
2022/09/22 02:50:25;;;;;;;4.30;2.72;;;;;;;11.61;100.00;99411.05;1676650;83;21618;-61
2022/09/22 02:52:54;;;;;;;4.30;2.85;;;;;;;11.53;100.00;99409.28;1676582;83;21434;-62
2022/09/22 02:55:20;;;;;;;2.87;2.67;;;;;;;11.51;100.00;99411.14;1665910;83;21537;-61
2022/09/22 02:57:47;;;;;;;2.98;2.72;;;;;;;11.55;100.00;99418.43;1676860;83;21793;-61
2022/09/22 03:00:14;;;;;;;3.95;2.35;;;;;;;11.52;100.00;99411.52;1655519;84;21543;-61
2022/09/22 03:02:41;;;;;;;2.93;2.50;;;;;;;11.51;100.00;99416.41;1647839;84;21541;-61
2022/09/22 03:05:07;;;;;;;2.77;2.58;;;;;;;11.48;100.00;99418.71;1657511;84;21469;-61
2022/09/22 03:07:35;;;;;;;2.95;2.75;;;;;;;11.41;100.00;99424.36;1639583;84;21516;-61
2022/09/22 03:10:03;;;;;;;2.83;2.55;;;;;;;11.38;100.00;99421.44;1650599;85;21925;-62
2022/09/22 03:12:30;;;;;;;5.10;2.25;;;;;;;11.29;100.00;99421.89;1645910;85;21570;-61
2022/09/22 03:14:56;;;;;;;3.52;3.08;;;;;;;11.27;100.00;99423.74;1639922;84;21439;-60
2022/09/22 03:17:24;;;;;;;5.50;2.60;;;;;;;11.28;100.00;99422.80;1646803;84;21501;-61
2022/09/22 03:19:51;;;;;;;3.45;3.00;;;;;;;11.30;100.00;99428.39;1653034;85;21546;-61
2022/09/22 03:22:18;;;;;;;3.87;2.90;;;;;;;11.37;100.00;99429.40;1642786;84;21927;-61
2022/09/22 03:24:44;;;;;;;2.90;2.67;;;;;;;11.44;100.00;99429.48;1638514;84;21546;-61
2022/09/22 03:27:12;;;;;;;3.25;2.95;;;;;;;11.46;100.00;99431.58;1639725;84;25699;-61
2022/09/22 03:29:38;;;;;;;2.80;2.60;;;;;;;11.43;100.00;99425.14;1648865;84;21502;-61
2022/09/22 03:32:05;;;;;;;2.87;2.62;;;;;;;11.41;100.00;99431.79;1611448;86;21569;-61
2022/09/22 03:34:32;;;;;;;6.03;2.72;;;;;;;11.39;100.00;99422.28;1607936;86;22043;-61
2022/09/22 03:36:59;;;;;;;2.72;2.52;;;;;;;11.40;100.00;99426.62;1629948;85;21577;-61
2022/09/22 03:39:27;;;;;;;;;;;;;;;11.46;100.00;99431.58;1597105;87;21578;-60
2022/09/22 03:41:53;;;;;;;2.92;2.62;;;;;;;11.45;100.00;99433.37;1614590;86;20255;-61
2022/09/22 03:44:20;;;;;;;2.92;2.72;;;;;;;11.50;100.00;99431.34;1615742;86;21523;-62
2022/09/22 03:46:46;;;;;;;2.22;2.10;;;;;;;11.59;100.00;99442.36;1608855;86;22033;-61
2022/09/22 03:49:13;;;;;;;3.05;2.20;;;;;;;11.63;100.00;99438.63;1621820;86;21063;-61
2022/09/22 03:51:39;;;;;;;2.35;2.22;;;;;;;11.66;100.00;99443.76;1616754;86;21038;-61
2022/09/22 03:54:06;;;;;;;5.45;2.83;;;;;;;11.66;100.00;99445.92;1625400;86;21026;-61
2022/09/22 03:56:33;;;;;;;2.37;2.20;;;;;;;11.65;100.00;99440.72;1598177;87;21530;-61
2022/09/22 03:59:00;;;;;;;2.95;2.10;;;;;;;11.57;100.00;99446.38;1618930;85;21849;-61
2022/09/22 04:01:28;;;;;;;2.98;2.67;;;;;;;11.50;100.00;99449.77;1620596;86;21525;-61
2022/09/22 04:03:55;;;;;;;2.50;2.40;;;;;;;11.46;100.00;99450.85;1636144;85;21459;-62
2022/09/22 04:06:22;;;;;;;2.62;2.42;;;;;;;11.47;100.00;99455.20;1646103;85;21500;-61
2022/09/22 04:08:48;;;;;;;3.05;2.85;;;;;;;11.50;100.00;99453.72;1633304;86;21570;-61
2022/09/22 04:11:15;;;;;;;2.90;2.67;;;;;;;11.48;100.00;99461.31;1638444;85;21888;-61
2022/09/22 04:13:42;;;;;;;3.35;3.02;;;;;;;11.47;100.00;99458.27;1611681;86;21535;-61
2022/09/22 04:16:09;;;;;;;3.25;2.95;;;;;;;11.48;100.00;99469.20;1645682;85;21586;-61
2022/09/22 04:18:40;;;;;;;4.55;3.02;;;;;;;11.48;100.00;99460.84;1636724;85;21550;-61
2022/09/22 04:21:07;;;;;;;4.40;3.15;;;;;;;11.50;100.00;99466.87;1632318;85;21507;-61
2022/09/22 04:23:34;;;;;;;3.67;3.37;;;;;;;11.56;100.00;99463.56;1641827;85;21583;-61
2022/09/22 04:26:01;;;;;;;3.72;3.42;;;;;;;11.55;100.00;99459.24;1633817;85;21507;-62
2022/09/22 04:28:28;;;;;;;3.97;3.67;;;;;;;11.50;100.00;99463.41;1611378;86;21086;-62
2022/09/22 04:30:57;;;;;;;4.55;3.75;;;;;;;11.54;100.00;99467.58;1638686;85;21877;-62
2022/09/22 04:33:25;;;;;;;4.40;3.92;;;;;;;11.52;100.00;99464.17;1641385;85;21674;-61
2022/09/22 04:35:52;;;;;;;4.40;4.00;;;;;;;11.48;100.00;99464.79;1639540;85;21934;-61
2022/09/22 04:38:19;;;;;;;6.00;4.03;;;;;;;11.45;100.00;99462.77;1637842;85;21538;-61
2022/09/22 04:40:48;;;;;;;4.50;4.10;;;;;;;11.37;100.00;99463.62;1636095;85;21641;-60
2022/09/22 04:43:14;;;;;;;6.35;4.70;;;;;;;11.38;100.00;99464.87;1636605;85;21477;-62
2022/09/22 04:45:47;;;;;;;5.22;4.83;;;;;;;11.42;100.00;99474.31;1633188;85;21564;-61
2022/09/22 04:48:15;;;;;;;5.20;4.72;;;;;;;11.47;100.00;99477.58;1639820;85;21420;-61
2022/09/22 04:50:42;;;;;;;5.55;5.00;;;;;;;11.50;100.00;99470.83;1639147;85;21519;-61
2022/09/22 04:53:09;;;;;;;8.90;5.03;;;;;;;11.54;100.00;99470.69;1645151;85;21529;-62
2022/09/22 04:55:36;;;;;;;5.75;4.95;;;;;;;11.52;100.00;99468.13;1624495;85;21104;-61
2022/09/22 04:58:02;;;;;;;6.12;5.08;;;;;;;11.55;100.00;99470.62;1645215;85;21577;-61
2022/09/22 05:00:29;;;;;;;5.60;5.10;;;;;;;11.61;100.00;99472.94;1611741;86;21845;-62
2022/09/22 05:02:56;;;;;;;6.08;4.87;;;;;;;11.60;100.00;99473.01;1637426;84;21469;-62
2022/09/22 05:05:26;;;;;;;5.80;5.30;;;;;;;11.56;100.00;99475.41;1685982;83;21516;-61
2022/09/22 05:07:53;;;;;;;7.03;5.17;;;;;;;11.55;100.00;99481.15;1675941;83;21591;-61
2022/09/22 05:10:24;;;;;;;5.92;5.10;;;;;;;11.58;100.00;99484.92;1680593;83;21690;-62
2022/09/22 05:12:52;;;;;;;6.22;5.62;;;;;;;11.62;100.00;99482.55;1669829;83;21785;-62
2022/09/22 05:15:19;;;;;;;7.37;4.70;;;;;;;11.65;100.00;99483.70;1678564;83;21560;-62
2022/09/22 05:17:50;;;;;;;5.83;4.92;;;;;;;11.59;100.00;99487.96;1681551;83;21555;-62
2022/09/22 05:20:18;;;;;;;5.50;5.00;;;;;;;11.60;100.00;99498.02;1672823;83;21413;-61
2022/09/22 05:22:46;;;;;;;7.72;6.42;;;;;;;11.62;100.00;99493.53;1681095;83;21713;-61
2022/09/22 05:25:17;;;;;;;6.83;5.72;;;;;;;11.61;100.00;99499.74;1680278;83;21793;-62
2022/09/22 05:27:52;;;;;;;5.22;4.78;;;;;;;11.61;100.00;99504.53;1675017;83;21431;-62
2022/09/22 05:30:22;;;;;;;6.03;5.42;;;;;;;11.65;100.00;99503.92;1676093;83;21547;-63
2022/09/22 05:32:49;;;;;;;6.65;6.05;;;;;;;11.68;100.00;99507.27;1690792;83;21511;-62
2022/09/22 05:35:21;;;;;;;6.65;5.95;;;;;;;11.77;100.00;99505.09;1684125;83;20938;-63
2022/09/22 05:37:49;;;;;;;5.62;5.12;;;;;;;11.84;100.00;99511.29;1671965;84;21797;-62
2022/09/22 05:40:17;;;;;;;6.05;5.47;;;;;;;11.80;100.00;99504.47;1685978;83;21423;-62
2022/09/22 05:42:47;;;;;;;6.00;5.40;;;;;;;11.83;100.00;99503.48;1669935;83;21420;-61
2022/09/22 05:45:14;;;;;;;7.95;5.72;;;;;;;11.91;100.00;99505.30;1676439;83;21500;-61
2022/09/22 05:47:41;;;;;;;7.22;6.45;;;;;;;11.93;100.00;99503.91;1675237;83;21503;-61
2022/09/22 05:50:09;;;;;;;6.67;6.03;;;;;;;11.93;100.00;99497.31;1684945;83;22041;-62
2022/09/22 05:52:36;;;;;;;6.00;5.47;;;;;;;11.90;100.00;99498.78;1675810;83;21541;-62
2022/09/22 05:55:05;;;;;;;6.50;5.90;;;;;;;11.88;100.00;99504.96;1673558;83;21608;-63
2022/09/22 05:57:32;;;;;;;5.83;5.33;;;;;;;11.89;100.00;99505.80;1676956;83;21067;-62
2022/09/22 05:59:59;;;;;;;6.13;5.63;;;;;;;11.93;100.00;99501.27;1687408;83;21800;-62
2022/09/22 06:02:25;;;;;;;6.30;5.70;;;;;;;11.92;100.00;99506.98;1670522;84;21861;-62
2022/09/22 06:04:52;;;;;;;5.50;5.00;;;;;;;11.91;100.00;99501.34;1678812;84;21575;-62
2022/09/22 06:07:19;;;;;;;6.17;5.58;;;;;;;11.82;100.00;99503.93;1632276;85;21523;-61
2022/09/22 06:09:47;;;;;;;5.87;5.33;;;;;;;11.85;100.00;99499.84;1682524;83;21606;-67
2022/09/22 06:12:15;;;;;;;6.25;5.47;;;;;;;11.86;100.00;99508.11;1679645;83;21431;-65
2022/09/22 06:14:42;;;;;;;5.83;5.33;;;;;;;11.92;100.00;99510.09;1679956;83;21817;-65
2022/09/22 06:17:09;;;;;;;8.98;5.53;;;;;;;12.01;100.00;99506.99;1685675;83;21642;-65
2022/09/22 06:19:38;;;;;;;6.17;5.58;;;;;;;12.04;100.00;99504.21;1679613;83;21523;-66
2022/09/22 06:22:04;;;;;;;4.97;4.58;;;;;;;12.00;100.00;99510.58;1678464;83;21410;-66
2022/09/22 06:24:32;;;;;;;5.60;5.10;;;;;;;12.01;100.00;99512.27;1674859;83;21587;-66
2022/09/22 06:26:59;;;;;;;5.85;5.25;;;;;;;12.07;100.00;99505.35;1674494;83;21858;-66
2022/09/22 06:29:25;;;;;;;5.58;4.97;;;;;;;12.13;100.00;99509.02;1678313;83;21548;-64
2022/09/22 06:31:52;;;;;;;5.23;4.83;;;;;;;12.12;100.00;99499.86;1681697;83;21503;-68
2022/09/22 06:34:21;;;;;;;5.72;5.22;;;;;;;12.06;100.00;99504.98;1674616;83;21561;-71
2022/09/22 06:36:49;;;;;;;5.92;5.10;;;;;;;12.08;100.00;99507.91;1662218;84;21578;-68
2022/09/22 06:39:15;;;;;;;4.72;4.33;;;;;;;12.16;100.00;99509.31;1647929;85;21480;-68
2022/09/22 06:41:43;;;;;;;5.17;4.78;;;;;;;12.21;100.00;99505.98;1674058;83;21507;-68
2022/09/22 06:44:11;;;;;;;;;;;;;;;12.30;100.00;99515.17;1687837;83;21573;-60
2022/09/22 06:46:38;;;;;;;4.92;4.53;;;;;;;12.31;100.00;99511.15;1673036;83;20419;-70
2022/09/22 06:49:04;;;;;;;5.33;4.83;;;;;;;12.39;100.00;99508.11;1688488;83;21457;-67
2022/09/22 06:51:34;;;;;;;4.90;4.17;;;;;;;12.46;100.00;99514.77;1682431;83;21940;-66
2022/09/22 06:54:03;;;;;;;5.08;4.67;;;;;;;12.52;100.00;99514.91;1687206;83;21063;-68
2022/09/22 06:56:33;;;;;;;5.50;5.00;;;;;;;12.59;100.00;99513.19;1674905;83;21081;-68
2022/09/22 06:59:00;;;;;;;5.03;4.62;;;;;;;12.62;100.00;99521.39;1675312;84;21538;-70
2022/09/22 07:01:29;;;;;;;4.92;4.53;;;;;;;12.58;100.00;99514.58;1683190;83;21083;-69
2022/09/22 07:03:57;;;;;;;6.15;4.55;;;;;;;12.58;100.00;99520.73;1680109;83;22193;-66
2022/09/22 07:06:25;;;;;;;5.22;4.72;;;;;;;12.63;100.00;99527.06;1685403;83;21546;-67
2022/09/22 07:08:51;;;;;;;6.05;4.25;;;;;;;12.66;100.00;99530.88;1637666;86;21531;-70
2022/09/22 07:11:22;;;;;;;4.33;4.00;;;;;;;12.71;100.00;99532.77;1646430;84;21654;-66
2022/09/22 07:13:46;;;;;;;5.05;4.65;;;;;;;12.77;100.00;99525.00;1636584;85;21079;-68
2022/09/22 07:16:16;;;;;;;4.70;4.30;;;;;;;12.82;100.00;99525.13;1636768;85;21880;-68
2022/09/22 07:18:48;;;;;;;5.67;4.65;;;;;;;12.90;100.00;99523.40;1650843;84;21501;-69
2022/09/22 07:21:21;;;;;;;4.40;4.03;;;;;;;12.96;100.00;99525.73;1629020;86;21445;-68
2022/09/22 07:23:51;;;;;;;5.12;4.72;;;;;;;13.02;100.00;99529.34;1630817;86;21580;-65
2022/09/22 07:26:20;;;;;;;4.65;4.25;;;;;;;13.12;100.00;99528.84;1621513;86;21691;-66
2022/09/22 07:28:50;;;;;;;4.60;4.20;;;;;;;13.20;100.00;99527.49;1632620;86;21811;-66
2022/09/22 07:31:17;;;;;;;5.00;4.50;;;;;;;13.19;100.00;99525.77;1606639;87;21428;-66
2022/09/22 07:33:45;;;;;;;4.30;3.90;;;;;;;13.22;100.00;99525.62;1627011;86;21066;-66
2022/09/22 07:36:17;;;;;;;;;;;;;;;13.25;100.00;99526.75;1629272;86;21034;-67
2022/09/22 07:38:50;;;;;;;4.45;4.05;;;;;;;13.21;100.00;99528.34;1628378;86;20523;-67
2022/09/22 07:41:26;;;;;;;5.00;4.50;;;;;;;13.24;100.00;99532.98;1631908;85;21804;-63
2022/09/22 07:43:55;;;;;;;4.83;4.40;;;;;;;13.34;100.00;99537.30;1625333;86;21536;-67
2022/09/22 07:46:22;;;;;;;5.03;4.53;;;;;;;13.29;100.00;99533.19;1657320;85;21529;-66
2022/09/22 07:48:49;;;;;;;5.33;4.83;;;;;;;13.33;100.00;99530.30;1648438;84;21814;-68
2022/09/22 07:51:20;;;;;;;5.40;4.90;;;;;;;13.48;100.00;99530.39;1651280;83;21523;-66
2022/09/22 07:55:39;;;;;;;4.22;3.87;;;;;;;12.94;100.00;99537.28;1769828;78;23187;-70
2022/09/22 07:58:07;;;;;;;5.30;4.80;;;;;;;13.51;100.00;99521.83;1744302;79;21562;-66
2022/09/22 08:00:35;;;;;;;4.58;4.20;;;;;;;13.55;100.00;99520.71;1700687;81;26991;-67
2022/09/22 08:03:02;;;;;;;;;;;;;;;13.56;100.00;99515.83;1704079;82;21640;-72
2022/09/22 08:05:31;;;;;;;4.40;3.77;;;;;;;13.48;100.00;99510.11;1692457;83;20457;-67
2022/09/22 08:08:00;;;;;;;4.28;3.90;;;;;;;13.51;100.00;99518.34;1692408;83;20971;-69
2022/09/22 08:10:28;;;;;;;4.25;3.95;;;;;;;13.61;100.00;99511.58;1669768;83;21489;-66
2022/09/22 08:12:56;;;;;;;4.12;3.83;;;;;;;13.67;100.00;99505.09;1689718;83;21942;-68
2022/09/22 08:15:25;;;;;;;8.95;4.00;;;;;;;13.70;100.00;99506.25;1698296;81;21517;-66
2022/09/22 08:18:01;;;;;;;;;;;;;;;13.69;100.00;99503.22;1708168;82;21696;-66
2022/09/22 08:20:28;;;;;;;4.55;4.10;;;;;;;13.59;100.00;99510.83;1698704;82;20482;-67
2022/09/22 08:23:01;;;;;;;4.50;3.98;;;;;;;13.64;100.00;99508.78;1700440;83;21435;-67
2022/09/22 08:25:27;;;;;;;3.85;3.50;;;;;;;13.59;100.00;99510.34;1697069;82;21884;-71
2022/09/22 08:27:53;;;;;;;4.12;3.80;;;;;;;13.44;100.00;99512.06;1696739;82;21523;-67
2022/09/22 08:30:20;;;;;;;4.22;3.80;;;;;;;13.45;100.00;99508.98;1688544;82;21605;-68
2022/09/22 08:32:47;;;;;;;4.42;4.00;;;;;;;13.44;100.00;99517.34;1693522;82;21608;-67
2022/09/22 08:35:14;;;;;;;6.67;3.67;;;;;;;13.43;100.00;99513.02;1699049;82;21013;-67
2022/09/22 08:37:42;;;;;;;4.28;3.98;;;;;;;13.42;100.00;99513.95;1698072;82;21784;-67
2022/09/22 08:40:19;;;;;;;4.75;4.25;;;;;;;13.47;100.00;99513.70;1693753;83;21096;-67
2022/09/22 08:42:46;;;;;;;4.17;3.77;;;;;;;13.41;100.00;99516.22;1700976;82;21625;-67
2022/09/22 08:45:33;;;;;;;3.52;3.22;;;;;;;13.39;100.00;99515.91;1698962;82;21585;-68
2022/09/22 08:53:49;;;;;;;4.28;3.98;;;;;;;13.54;100.00;99519.47;1692543;82;22516;-67
2022/09/22 08:56:35;;;;;;;4.25;3.90;;;;;;;13.55;100.00;99523.35;1679572;83;21534;-63
2022/09/22 08:59:22;;;;;;;5.75;4.30;;;;;;;13.50;100.00;99513.52;1678465;83;21515;-61
2022/09/22 09:02:03;;;;;;;3.37;3.15;;;;;;;13.57;100.00;99520.63;1679799;83;21534;-61
2022/09/22 09:05:01;;;;;;;3.50;3.20;;;;;;;13.63;100.00;99521.59;1678923;83;21950;-64
2022/09/22 09:07:36;;;;;;;3.25;3.05;;;;;;;13.76;100.00;99516.45;1722650;80;21538;-63
2022/09/22 09:10:21;;;;;;;3.80;3.50;;;;;;;13.88;100.00;99523.69;1695905;81;21005;-62
2022/09/22 09:13:06;;;;;;;3.65;3.35;;;;;;;13.92;100.00;99523.88;1663326;84;21535;-62
2022/09/22 09:15:56;;;;;;;2.98;2.67;;;;;;;13.96;100.00;99524.56;1606470;85;21586;-62
2022/09/22 09:18:28;;;;;;;2.62;2.45;;;;;;;14.11;100.00;99520.13;1629587;86;21961;-62
2022/09/22 09:20:56;;;;;;;2.20;2.10;;;;;;;14.28;100.00;99511.19;1720531;81;21543;-62
2022/09/22 09:23:30;;;;;;;1.65;1.55;;;;;;;14.43;100.00;99513.38;1694545;83;21531;-63
2022/09/22 09:25:57;;;;;;;2.37;2.17;;;;;;;14.46;100.00;99503.47;1675663;84;21014;-63
2022/09/22 09:28:32;;;;;;;1.87;1.70;;;;;;;14.50;100.00;99500.17;1679053;84;21652;-63
2022/09/22 09:31:26;;;;;;;1.70;1.60;;;;;;;14.48;100.00;99500.25;1716731;81;21780;-64
2022/09/22 09:34:04;;;;;;;1.85;1.75;;;;;;;14.55;100.00;99498.09;1695529;80;21033;-64
2022/09/22 09:36:36;;;;;;;2.50;2.30;;;;;;;14.75;100.00;99497.75;1723804;81;21070;-64
2022/09/22 09:39:29;;;;;;;1.92;1.82;;;;;;;14.87;100.00;99500.58;1730661;80;21029;-64
2022/09/22 09:41:56;;;;;;;2.05;1.95;;;;;;;14.94;100.00;99497.92;1684563;84;21521;-64
2022/09/22 09:44:37;;;;;;;2.03;1.80;;;;;;;15.14;100.00;99495.31;1724563;80;21833;-64
2022/09/22 09:47:46;;;;;;;1.67;1.57;;;;;;;15.24;100.00;99492.47;1715632;81;21037;-64
2022/09/22 09:50:13;;;;;;;1.72;1.62;;;;;;;15.23;100.00;99492.08;1732346;80;21586;-64
2022/09/22 09:52:41;;;;;;;2.40;1.87;;;;;;;15.28;100.00;99487.82;1723101;80;21014;-64
2022/09/22 09:55:25;;;;;;;1.90;1.70;;;;;;;15.25;100.00;99492.82;1731863;80;21005;-65
2022/09/22 10:00:29;;;;;;;1.57;1.47;;;;;;;15.16;100.00;99496.94;1737342;80;21910;-64
2022/09/22 10:00:56;;;;;;;2.00;1.80;;;;;;;15.07;100.00;99496.20;1740647;80;21077;-64
2022/09/22 10:03:31;;;;;;;1.72;1.62;;;;;;;14.99;100.00;99503.75;1687291;83;21481;-64
2022/09/22 10:06:06;;;;;;;2.98;1.90;;;;;;;14.89;100.00;99502.64;1696468;82;21457;-64
2022/09/22 10:08:43;;;;;;;1.45;1.30;;;;;;;14.96;100.00;99502.64;1669549;83;21540;-63
2022/09/22 10:11:11;;;;;;;1.72;1.60;;;;;;;15.01;100.00;99503.66;1702487;82;21410;-63
2022/09/22 10:13:39;;;;;;;1.25;1.20;;;;;;;15.01;100.00;99510.28;1700812;82;21647;-63
2022/09/22 10:16:22;;;;;;;2.65;1.67;;;;;;;15.06;100.00;99503.75;1646813;83;21594;-63
2022/09/22 10:19:24;;;;;;;1.57;1.40;;;;;;;15.06;100.00;99501.09;1678488;84;21575;-63
2022/09/22 10:21:50;;;;;;;2.08;1.57;;;;;;;15.02;100.00;99506.22;1684156;83;21552;-64
2022/09/22 10:24:31;;;;;;;1.95;1.85;;;;;;;15.09;100.00;99511.51;1679503;83;22116;-63
2022/09/22 10:26:58;;;;;;;1.67;1.57;;;;;;;15.10;100.00;99503.92;1680107;83;21430;-65
2022/09/22 10:29:26;;;;;;;4.15;1.77;;;;;;;15.18;100.00;99507.40;1688670;83;21656;-64
2022/09/22 10:32:14;;;;;;;1.40;1.30;;;;;;;15.26;100.00;99502.48;1696535;82;21614;-64
2022/09/22 10:34:49;;;;;;;2.02;1.60;;;;;;;15.37;100.00;99502.64;1677679;83;22872;-64
2022/09/22 10:37:20;;;;;;;1.72;1.62;;;;;;;15.43;100.00;99503.20;1674527;83;21962;-65
2022/09/22 10:39:49;;;;;;;1.42;1.32;;;;;;;15.43;100.00;99497.91;1684629;83;21075;-64
2022/09/22 10:42:39;;;;;;;1.80;1.70;;;;;;;15.45;100.00;99499.48;1652270;84;21499;-63
2022/09/22 10:45:13;;;;;;;1.85;1.75;;;;;;;15.38;100.00;99496.86;1677279;83;21653;-64
2022/09/22 10:47:52;;;;;;;1.42;1.32;;;;;;;15.30;100.00;99496.52;1684728;83;21429;-63
2022/09/22 10:50:54;;;;;;;1.52;1.42;;;;;;;15.24;100.00;99502.19;1687652;82;21965;-64
2022/09/22 10:53:47;;;;;;;1.98;1.77;;;;;;;15.15;100.00;99501.00;1684326;83;21612;-63
2022/09/22 10:56:37;;;;;;;2.20;1.98;;;;;;;15.19;100.00;99505.14;1683820;83;21007;-63
2022/09/22 10:59:54;;;;;;;2.08;1.90;;;;;;;15.26;100.00;99506.45;1673561;83;21443;-63
2022/09/22 11:02:48;;;;;;;1.90;1.70;;;;;;;15.23;100.00;99499.18;1675921;83;21557;-63
2022/09/22 11:14:30;;;;;;;2.10;1.90;;;;;;;15.16;100.00;99500.91;1693754;82;21584;-62
2022/09/22 11:17:40;;;;;;;1.67;1.57;;;;;;;15.21;100.00;99495.30;1730512;80;21022;-62
2022/09/22 11:20:25;;;;;;;3.00;1.62;;;;;;;15.22;100.00;99493.04;1742680;80;21450;-61
2022/09/22 11:23:05;;;;;;;1.80;1.70;;;;;;;15.25;100.00;99487.52;1737900;80;21018;-65
2022/09/22 11:25:55;;;;;;;3.15;1.60;;;;;;;15.32;100.00;99487.99;1734914;80;21542;-64
2022/09/22 11:28:51;;;;;;;1.80;1.70;;;;;;;15.32;100.00;99484.86;1690551;83;21419;-64
2022/09/22 11:31:43;;;;;;;2.72;1.80;;;;;;;15.38;100.00;99481.80;1736959;82;21562;-62
2022/09/22 11:34:40;;;;;;;1.80;1.70;;;;;;;15.43;99.95;99480.20;1701815;83;21856;-63
2022/09/22 11:37:27;;;;;;;1.50;1.40;;;;;;;15.50;99.39;99482.83;1693543;82;21498;-63
2022/09/22 11:40:25;;;;;;;1.77;1.57;;;;;;;15.57;98.91;99474.81;1730361;80;21577;-63
2022/09/22 11:43:22;;;;;;;1.72;1.45;;;;;;;15.74;99.10;99468.42;1730255;80;21468;-64
2022/09/22 11:46:27;;;;;;;1.50;1.40;;;;;;;15.91;97.68;99469.10;1686664;83;21470;-62
2022/09/22 11:49:41;;;;;;;1.55;1.45;;;;;;;15.95;96.81;99461.30;1733368;80;21811;-64
2022/09/22 11:52:25;;;;;;;1.47;1.37;;;;;;;15.97;97.52;99464.70;1733113;80;21419;-64
2022/09/22 11:55:28;;;;;;;1.42;1.32;;;;;;;15.96;97.68;99465.19;1696767;82;21629;-64
2022/09/22 11:58:07;;;;;;;1.47;1.37;;;;;;;16.02;97.53;99471.03;1727673;80;21494;-63
2022/09/22 12:00:48;;;;;;;1.60;1.50;;;;;;;15.94;96.44;99469.75;1720877;80;21518;-63
2022/09/22 12:03:26;;;;;;;1.50;1.40;;;;;;;15.80;96.53;99467.66;1718411;80;21919;-64
2022/09/22 12:06:00;;;;;;;1.62;1.52;;;;;;;15.74;97.31;99468.42;1657392;84;21519;-63
2022/09/22 12:08:31;;;;;;;1.40;1.30;;;;;;;15.56;97.31;99473.13;1683663;81;21061;-63
2022/09/22 12:10:58;;;;;;;1.60;1.50;;;;;;;15.47;97.66;99475.55;1674091;83;21609;-64
2022/09/22 12:13:27;;;;;;;1.75;1.57;;;;;;;15.45;98.81;99471.67;1722741;80;21585;-64